Airfield :
LOGIN :

Register | Disclaimer

   EN    FR    IT 

 










Legend :    VFR   Marginal VFR   IFR   Intensive IFR   Very Intensive IFR
Visi :
Ceiling :
>= 8 km
>= 3000ft
5 to 8 km
1000 to 3000 ft
1500m to 5 km
500 to 1000 ft
800 to 1500m
200 to 500 ft
< 800m
< 200 ft
Symbols :   Thunderstorms  Fog  Heavy snow  Heavy precipitations  Wind > 20 kt
SIGMETs :     Misc.  Thunderstorms  Icing  Turbulence  Mountain Waves  Volcanic Ashes






- Airport Elevation : 670 ft
- IATA code : MSQ


UMMS - Minsk - 2

CURRENT METAR :
  • 100300Z 33005MPS 9999 FEW024 01/M03 Q1016 R31R/////// R31L/CLRD// NOSIG

EXPIRED METARs :
  • 100230Z 34005G08MPS CAVOK 01/M03 Q1015 R31R/////// R31L/CLRD// NOSIG
  • 100200Z 34006G09MPS CAVOK 02/M03 Q1015 R31R/////// R31L/CLRD// NOSIG
  • 100130Z 34007G10MPS CAVOK 03/M03 Q1015 R31R/////// R31L/CLRD// NOSIG
  • 100100Z 33005MPS CAVOK 03/M03 Q1015 R31R/////// R31L/CLRD// NOSIG
  • 100030Z 34005MPS CAVOK 04/M02 Q1014 R31R/////// R31L/CLRD// NOSIG

TAF TAF UMMS
Valid from the 10 at 00:00 until the 11 at 00:00 UTC


092309Z 1000/1024 33008G13MPS 9999 BKN010 TX09/1012Z TNM00/1003Z
TEMPO 1000/1005 2000 BR SCT005
TEMPO 1005/1017 33009G14MPS
BECMG 1017/1018 30005MPS
TEMPO 1018/1024 1200 BCFG BR SCT003



MET'MAP, your aeronautical weather chart ! - Copyright ORBIFLY December 2007 - Disclaimer

ORBIFLY MET'MAP TEAM :

Programming & Development : Alexandra Zaïnal
Concept & original design : Baudouin d'Aumeries
Assistance for programming : Marc-Olivier Méhu
Technical & hardware support : Manuel Goepfert

Contact : metmap@orbifly.com




SOURCES & CREDITS :

   NOAA